Flight Track Log - Related Links

Times and Time Zones

All times are in EDT time to prevent confusion due to time zone crossing. See the N682RW flight status page for this flight to view local times or setup timezone preferences in your user account.

Time Position Orientation Groundspeed Altitude Reporting Facility
EDT Latitude Longitude Course Direction KTS MPH feet Rate Location/Type
11:50PM 41.8000 -87.7167 98° East 166 191 2,800  Level Chicago TRACON
11:50PM 41.7925 -87.6631 101° East 194 223 5,100 3,204 Climbing Chicago Center
11:51PM 41.7889 -87.5675 93° East 259 298 8,300 3,246 Climbing Chicago Center
11:52PM 41.7822 -87.4572 95° East 297 342 11,700 2,926 Climbing Chicago Center
11:53PM 41.7767 -87.3336 93° East 331 381 14,200 2,529 Climbing Chicago Center
11:54PM 41.7689 -87.1883 94° East 388 447 16,800 2,331 Climbing Chicago Center
11:55PM 41.7616 -87.1658 98° East  Level FlightAware Approximate
11:55PM 41.7592 -87.0347 95° East 414 476 18,900  Level Chicago Center
11:56PM 41.7622 -86.8778 88° East 420 483 19,000 49 Climbing Chicago Center
11:57PM 41.7642 -86.7211 89° East 419 482 19,000  Level Chicago Center
11:58PM 41.7653 -86.5794 89° East 421 484 19,000  Level Chicago Center
11:59PM 41.7664 -86.4236 89° East 419 482 19,000  Level Chicago Center
12:00AM 41.7808 -86.2367 84° East 426 490 19,000  Level Chicago Center
12:01AM 41.8064 -86.0828 77° East 422 486 19,000  Level Chicago Center
12:02AM 41.8300 -85.9286 78° East 423 487 19,000  Level Chicago Center
12:03AM 41.8547 -85.7753 78° East 421 484 19,000  Level Chicago Center
12:04AM 41.8789 -85.6197 78° East 423 487 19,000  Level Chicago Center
12:05AM 41.9039 -85.4625 78° East 425 489 19,000  Level Chicago Center
12:06AM 41.9281 -85.3075 78° East 422 486 19,000  Level Chicago Center
12:07AM 41.9525 -85.1522 78° East 422 486 19,000  Level Chicago Center
12:08AM 41.9758 -84.9975 78° East 422 486 19,000  Level Chicago Center
12:09AM 41.9953 -84.8653 79° East 424 488 19,000 -793 Level Chicago Center
12:10AM 42.0192 -84.7122 78° East 423 487 17,400 -1,934 Descending Chicago Center
12:11AM 42.0408 -84.5656 79° East 408 470 15,100 -2,430 Descending Chicago Center
12:12AM 42.0642 -84.3975 79° East 389 448 12,500 -2,069 Descending Chicago Center
12:13AM 42.0803 -84.2958 78° East 374 430 11,100 -1,139 Descending Cleveland Center
12:14AM 42.0897 -84.2233 80° East 358 412 11,000 -100 Descending Cleveland Center
12:14AM 42.0992 -84.1636 78° East 342 394 11,000  Level Cleveland Center
12:15AM 42.1061 -84.1047 81° East 313 360 11,000 -590 Level Cleveland Center
12:15AM 42.1125 -84.0497 81° East 311 358 10,400 -1,279 Descending Cleveland Center
12:16AM 42.1175 -83.9967 83° East 292 336 9,700 -1,300 Descending Cleveland Center
12:16AM 42.1236 -83.9444 81° East 290 334 9,100 -1,279 Descending Cleveland Center
12:17AM 42.1242 -83.8906 89° East 276 318 8,400 -1,600 Descending Cleveland Center
12:17AM 42.1231 -83.8433 92° East 274 315 7,500 -1,700 Descending Cleveland Center
12:18AM 42.1219 -83.7917 92° East 266 306 6,700 -1,475 Descending Cleveland Center
12:18AM 42.1214 -83.7483 91° East 259 298 6,000 -1,527 Descending Cleveland Center
12:19AM 42.1222 -83.7100 88° East 234 269 5,300 -1,700 Descending Cleveland Center
12:19AM 42.1219 -83.6611 90° East 241 277 4,300 -1,300 Descending Cleveland Center
12:20AM 42.1206 -83.6253 93° East 223 257 4,000 -885 Descending Cleveland Center
12:20AM 42.1222 -83.5828 87° East 226 260 3,400 -982 Descending Cleveland Center
12:21AM 42.1219 -83.5553 91° East 196 226 3,100 -500 Descending Cleveland Center
12:21AM 42.1211 -83.5147 92° East 201 231 2,900 -500 Descending Cleveland Center
12:22AM 42.1189 -83.4900 97° East 160 184 2,600 -600 Descending Cleveland Center
12:22AM 42.1333 -83.4528 62° Northeast 170 196 2,300 -393 Descending Cleveland Center
12:23AM 42.1372 -83.4419 64° Northeast 126 145 2,200 -492 Descending Cleveland Center
12:23AM 42.1536 -83.4189 46° Northeast 137 158 1,800 -492 Descending Cleveland Center
12:24AM 42.1625 -83.4144 20° North 116 133 1,700 -600 Descending Cleveland Center
12:24AM 42.1831 -83.3989 29° Northeast 125 144 1,200 -636 Descending Cleveland Center
12:25AM 42.1936 -83.3908 29° Northeast 116 133 1,000 -295 Descending Cleveland Center
12:25AM 42.2078 -83.3808 28° Northeast 121 139 900 -146 Descending Cleveland Center
12:27AM 42.2000 -83.3500 90° East  Level FlightAware Approximate
12:34AM 42.2124 -83.3534 90° East  Level Estimated

Login

Don't have an account? Register now (free) for customized features, flight alerts, and more!